Time;durP1;ratioP1;P1;durP2;ratioP2;P2;SDS_P1;SDS_P2;PMS_P1;PMS_P2;Temp;Humidity;BMP_temperature;BMP_pressure;BME280_temperature;BME280_humidity;BME280_pressure;Samples;Min_cycle;Max_cycle;Signal;HPM_P1;HPM_P2
2022/07/17 00:03:44;;;;;;;14.05;12.35;;;16.50;99.90;;;;;;20967950;28;20040;-59
2022/07/17 00:13:46;;;;;;;12.82;11.52;;;16.40;99.90;;;;;;20967449;28;20053;-59
2022/07/17 00:23:48;;;;;;;13.40;11.45;;;16.40;99.90;;;;;;20967230;28;20088;-53
2022/07/17 00:33:50;;;;;;;12.73;11.43;;;16.50;99.90;;;;;;20966939;28;20040;-53
2022/07/17 00:43:53;;;;;;;11.60;9.57;;;16.70;99.90;;;;;;20966466;28;20113;-59
2022/07/17 00:53:58;;;;;;;12.52;11.23;;;17.10;99.90;;;;;;20965875;28;20032;-58
2022/07/17 01:04:01;;;;;;;11.90;8.93;;;17.20;99.90;;;;;;20965974;28;20049;-59
2022/07/17 01:14:04;;;;;;;10.70;9.70;;;17.50;99.90;;;;;;20971987;28;20036;-58
2022/07/17 01:24:06;;;;;;;9.32;8.40;;;17.70;99.90;;;;;;20980067;28;20033;-58
2022/07/17 01:34:12;;;;;;;9.65;8.70;;;17.70;99.90;;;;;;20979441;28;20048;-59
2022/07/17 01:44:14;;;;;;;10.00;9.00;;;17.90;99.90;;;;;;20978706;28;20036;-59
2022/07/17 01:54:17;;;;;;;10.98;9.80;;;17.90;99.90;;;;;;20978072;28;20385;-56
2022/07/17 02:04:20;;;;;;;12.40;11.13;;;17.60;99.90;;;;;;20977492;28;20036;-59
2022/07/17 02:14:22;;;;;;;14.07;12.68;;;17.30;99.90;;;;;;20976144;28;20048;-58
2022/07/17 02:24:24;;;;;;;17.77;14.55;;;17.00;99.90;;;;;;20975588;28;20036;-54
2022/07/17 02:34:26;;;;;;;22.20;14.43;;;16.60;99.90;;;;;;20975120;28;20044;-59
2022/07/17 02:44:29;;;;;;;15.55;13.95;;;16.70;99.90;;;;;;20974316;28;20338;-59
2022/07/17 02:54:31;;;;;;;15.85;13.50;;;16.80;99.90;;;;;;20973506;28;20037;-59
2022/07/17 03:04:34;;;;;;;18.60;13.77;;;16.80;99.90;;;;;;20972307;28;20071;-56
2022/07/17 03:14:36;;;;;;;14.48;12.65;;;17.00;99.90;;;;;;20972221;28;20052;-58
2022/07/17 03:24:38;;;;;;;18.00;14.02;;;17.20;99.90;;;;;;20970833;28;20037;-54
2022/07/17 03:34:41;;;;;;;15.20;13.65;;;17.20;99.90;;;;;;20969481;28;20037;-56
2022/07/17 03:44:43;;;;;;;19.55;14.40;;;17.10;99.90;;;;;;20969392;28;20032;-59
2022/07/17 03:54:46;;;;;;;18.77;15.50;;;17.10;99.90;;;;;;20968861;28;20121;-59
2022/07/17 04:04:49;;;;;;;15.93;14.23;;;17.00;99.90;;;;;;20969249;28;20405;-53
2022/07/17 04:14:51;;;;;;;16.40;14.77;;;17.20;99.90;;;;;;20967628;28;20044;-53
2022/07/17 04:24:53;;;;;;;17.90;16.00;;;17.10;99.90;;;;;;20951245;28;20032;-59
2022/07/17 04:34:55;;;;;;;15.95;14.35;;;17.00;99.90;;;;;;20966911;28;20106;-59
2022/07/17 04:44:58;;;;;;;21.48;17.02;;;17.00;99.90;;;;;;20967994;28;20040;-58
2022/07/17 04:55:00;;;;;;;17.48;15.57;;;17.20;99.90;;;;;;20982765;28;20431;-58
2022/07/17 05:05:04;;;;;;;21.50;16.65;;;17.50;99.90;;;;;;20982584;28;20032;-53
2022/07/17 05:15:07;;;;;;;15.13;13.70;;;17.80;99.90;;;;;;20980847;28;20550;-59
2022/07/17 05:25:09;;;;;;;13.55;12.15;;;18.30;99.90;;;;;;20980694;28;20036;-59
2022/07/17 05:35:12;;;;;;;15.63;12.65;;;18.30;99.90;;;;;;20979997;28;20048;-58
2022/07/17 05:45:14;;;;;;;12.02;10.77;;;18.70;99.90;;;;;;20978634;28;20378;-59
2022/07/17 05:55:16;;;;;;;11.48;9.85;;;19.50;99.90;;;;;;20977641;28;20058;-55
2022/07/17 06:05:19;;;;;;;9.68;8.68;;;20.60;99.90;;;;;;20977204;28;20036;-60
2022/07/17 06:15:23;;;;;;;8.57;7.72;;;21.90;99.90;;;;;;20976200;28;20094;-60
2022/07/17 06:25:25;;;;;;;8.25;7.45;;;23.00;99.90;;;;;;21006746;28;20054;-57
2022/07/17 06:35:30;;;;;;;7.10;6.40;;;25.00;99.90;;;;;;21058516;28;20094;-60
2022/07/17 06:45:33;;;;;;;7.28;6.32;;;25.70;98.80;;;;;;21058581;28;20549;-61
2022/07/17 06:55:35;;;;;;;7.57;6.70;;;27.00;96.80;;;;;;21046772;28;20102;-60
2022/07/17 07:05:38;;;;;;;8.23;6.07;;;27.90;94.60;;;;;;20972323;28;20105;-61
2022/07/17 07:15:41;;;;;;;8.07;7.20;;;29.50;90.90;;;;;;20970598;28;20048;-57
2022/07/17 07:25:44;;;;;;;9.15;7.88;;;30.60;86.10;;;;;;20970340;28;20036;-61
2022/07/17 07:35:46;;;;;;;9.35;7.35;;;31.10;85.90;;;;;;20969742;28;20041;-62
2022/07/17 07:45:49;;;;;;;8.95;8.18;;;31.60;82.30;;;;;;20992138;28;20077;-58
2022/07/17 07:55:51;;;;;;;10.32;9.30;;;32.10;79.20;;;;;;21052189;28;20503;-61
2022/07/17 08:05:54;;;;;;;7.20;6.50;;;30.90;78.50;;;;;;21052427;28;20176;-61
2022/07/17 08:15:58;;;;;;;7.53;6.82;;;29.50;84.30;;;;;;21050637;28;20489;-61
2022/07/17 08:26:01;;;;;;;8.15;7.45;;;30.10;83.10;;;;;;21009678;28;20289;-60
2022/07/17 08:36:04;;;;;;;7.68;7.07;;;28.80;86.90;;;;;;20966789;28;20045;-61
2022/07/17 08:46:11;;;;;;;8.27;7.45;;;27.30;90.90;;;;;;20967263;28;20032;-61
2022/07/17 08:56:15;;;;;;;6.63;6.03;;;27.50;90.80;;;;;;20981224;28;20044;-61
2022/07/17 09:06:20;;;;;;;6.95;5.97;;;28.60;86.30;;;;;;21048327;28;20036;-60
2022/07/17 09:16:22;;;;;;;6.05;4.95;;;27.70;87.20;;;;;;21048521;28;20085;-62
2022/07/17 09:26:26;;;;;;;5.72;5.03;;;28.60;85.80;;;;;;21048149;28;20089;-61
2022/07/17 09:36:29;;;;;;;5.32;4.57;;;29.20;82.20;;;;;;21055963;28;20058;-61
2022/07/17 09:46:36;;;;;;;4.22;3.83;;;28.20;82.90;;;;;;21033189;28;20037;-60
2022/07/17 09:56:39;;;;;;;5.27;4.10;;;27.50;82.70;;;;;;20977227;28;20028;-60
2022/07/17 10:06:42;;;;;;;4.32;3.83;;;27.60;81.80;;;;;;20976409;28;20278;-57
2022/07/17 10:16:46;;;;;;;7.32;4.05;;;29.00;80.80;;;;;;20976482;28;20053;-61
2022/07/17 10:26:49;;;;;;;5.25;3.90;;;28.40;79.60;;;;;;21018322;28;20036;-62
2022/07/17 10:36:51;;;;;;;4.60;4.03;;;30.10;78.60;;;;;;21058221;28;20097;-61
2022/07/17 10:46:55;;;;;;;7.70;4.20;;;30.50;75.60;;;;;;21055532;28;20035;-61
2022/07/17 10:57:01;;;;;;;7.68;4.30;;;29.00;78.90;;;;;;21034847;28;20036;-61
2022/07/17 11:07:07;;;;;;;5.47;4.07;;;28.80;78.70;;;;;;20973770;28;20558;-61
2022/07/17 11:17:10;;;;;;;4.85;4.40;;;28.20;79.30;;;;;;20971256;28;20040;-60
2022/07/17 11:27:24;;;;;;;5.85;3.75;;;27.50;81.30;;;;;;20970711;28;20032;-62
2022/07/17 11:37:30;;;;;;;6.40;4.20;;;27.90;83.30;;;;;;20970728;28;20485;-62
2022/07/17 11:47:33;;;;;;;5.20;4.70;;;29.30;77.90;;;;;;21007252;28;20463;-62
2022/07/17 11:57:46;;;;;;;4.60;4.20;;;30.80;75.30;;;;;;21051678;28;20105;-62
2022/07/17 12:07:50;;;;;;;5.70;4.00;;;31.50;74.00;;;;;;21036778;28;20082;-62
2022/07/17 12:17:52;;;;;;;4.28;3.88;;;31.40;74.60;;;;;;21050788;28;20040;-57
2022/07/17 12:27:55;;;;;;;4.95;4.07;;;31.80;73.70;;;;;;20993619;28;20033;-62
2022/07/17 12:37:57;;;;;;;7.88;4.40;;;31.60;72.00;;;;;;20966937;28;20385;-62
2022/07/17 12:48:00;;;;;;;5.75;4.60;;;31.00;72.40;;;;;;20966369;28;20123;-62
2022/07/17 12:58:06;;;;;;;4.83;4.33;;;31.50;72.50;;;;;;20996781;28;20468;-62
2022/07/17 13:08:09;;;;;;;5.22;4.50;;;31.40;73.00;;;;;;21052582;28;20085;-62
2022/07/17 13:18:12;;;;;;;5.53;4.10;;;31.80;72.00;;;;;;21064169;28;20052;-61
2022/07/17 13:28:15;;;;;;;4.78;4.22;;;32.00;70.40;;;;;;21063405;28;20044;-62
2022/07/17 13:38:17;;;;;;;5.38;4.22;;;32.20;70.00;;;;;;21061922;28;20081;-62
2022/07/17 13:48:21;;;;;;;4.60;4.20;;;31.50;71.70;;;;;;21017020;28;20055;-62
2022/07/17 13:58:25;;;;;;;5.35;4.60;;;32.00;71.10;;;;;;20977222;28;20070;-62
2022/07/17 14:08:28;;;;;;;4.90;4.47;;;32.00;70.70;;;;;;20976942;28;20040;-62
2022/07/17 14:18:31;;;;;;;5.38;4.57;;;31.10;70.50;;;;;;20975710;28;20048;-61
2022/07/17 14:28:34;;;;;;;4.82;4.43;;;31.10;70.70;;;;;;21037915;28;20089;-62
2022/07/17 14:38:36;;;;;;;5.63;4.65;;;31.50;71.10;;;;;;21058106;28;20032;-57
2022/07/17 14:48:39;;;;;;;5.72;4.97;;;32.30;69.70;;;;;;21040108;28;20044;-62
2022/07/17 14:58:42;;;;;;;6.30;5.20;;;32.30;69.40;;;;;;21020449;28;20513;-62
2022/07/17 15:08:45;;;;;;;5.57;5.07;;;32.40;67.90;;;;;;20906333;28;20103;-62
2022/07/17 15:18:48;;;;;;;5.47;4.97;;;32.60;68.70;;;;;;20905182;28;20036;-62
2022/07/17 15:28:50;;;;;;;5.93;4.88;;;32.60;67.20;;;;;;20887710;28;20509;-61
2022/07/17 15:38:59;;;;;;;5.32;4.63;;;32.40;67.20;;;;;;20887260;28;20029;-57
2022/07/17 15:49:04;;;;;;;4.95;4.55;;;31.10;70.20;;;;;;20986239;28;20032;-62
2022/07/17 15:59:07;;;;;;;5.33;4.50;;;31.40;69.20;;;;;;21051444;28;20035;-57
2022/07/17 16:09:13;;;;;;;5.05;4.55;;;31.10;68.50;;;;;;21035477;28;20070;-61
2022/07/17 16:19:17;;;;;;;4.65;3.92;;;30.10;71.20;;;;;;21050302;28;20036;-61
2022/07/17 16:29:20;;;;;;;5.07;4.22;;;28.10;73.70;;;;;;21000761;28;20040;-60
2022/07/17 16:39:23;;;;;;;5.03;4.07;;;26.60;77.90;;;;;;20965938;28;20040;-60
2022/07/17 16:49:25;;;;;;;6.00;4.20;;;25.80;79.40;;;;;;20983003;28;20036;-59
2022/07/17 16:59:28;;;;;;;5.95;4.30;;;25.00;81.90;;;;;;21024511;28;20032;-60
2022/07/17 17:09:31;;;;;;;7.10;5.15;;;24.00;88.30;;;;;;21064940;28;20431;-60
2022/07/17 17:19:34;;;;;;;7.40;4.88;;;23.10;87.50;;;;;;21064214;28;20496;-59
2022/07/17 17:29:36;;;;;;;8.13;5.05;;;22.50;89.80;;;;;;21065519;28;20036;-59
2022/07/17 17:39:39;;;;;;;6.18;5.28;;;21.90;91.30;;;;;;21064965;28;20350;-59
2022/07/17 17:49:42;;;;;;;6.03;5.15;;;21.50;91.90;;;;;;21006345;28;20389;-59
2022/07/17 17:59:45;;;;;;;7.45;6.07;;;21.10;92.70;;;;;;20960728;28;20447;-59
2022/07/17 18:09:48;;;;;;;7.13;5.28;;;20.70;93.80;;;;;;20976705;28;20440;-60
2022/07/17 18:19:52;;;;;;;7.38;6.00;;;20.30;94.30;;;;;;20976391;28;20550;-59
2022/07/17 18:29:54;;;;;;;6.68;5.95;;;19.90;95.40;;;;;;21048739;28;20488;-59
2022/07/17 18:39:57;;;;;;;6.68;6.03;;;19.60;96.20;;;;;;21058685;28;20032;-53
2022/07/17 18:50:01;;;;;;;8.77;6.50;;;19.30;97.10;;;;;;21057327;28;20032;-59
2022/07/17 19:00:04;;;;;;;7.93;6.35;;;18.90;97.80;;;;;;21009322;28;20405;-58
2022/07/17 19:10:08;;;;;;;8.10;6.70;;;18.50;99.20;;;;;;20971264;28;20041;-58
2022/07/17 19:20:15;;;;;;;10.25;6.65;;;18.20;99.90;;;;;;20972065;28;20067;-58
2022/07/17 19:30:18;;;;;;;10.18;7.80;;;17.90;99.90;;;;;;20970457;28;20032;-54
2022/07/17 19:40:22;;;;;;;13.70;9.40;;;17.70;99.90;;;;;;20953409;28;20105;-58
2022/07/17 19:50:25;;;;;;;10.68;6.90;;;17.50;99.90;;;;;;21030909;28;20092;-58
2022/07/17 20:00:28;;;;;;;13.75;9.65;;;17.30;99.90;;;;;;21052961;28;20036;-58
2022/07/17 20:10:30;;;;;;;12.63;7.50;;;17.20;99.90;;;;;;21052591;28;20074;-58
2022/07/17 20:20:33;;;;;;;9.88;6.40;;;17.10;99.90;;;;;;21051101;28;20543;-58
2022/07/17 20:30:36;;;;;;;7.28;6.25;;;17.20;99.90;;;;;;20955397;28;20036;-55
2022/07/17 20:40:39;;;;;;;7.50;6.70;;;17.40;99.90;;;;;;20964494;28;20046;-58
2022/07/17 20:50:41;;;;;;;9.90;7.07;;;17.40;99.90;;;;;;20883046;28;20431;-66
2022/07/17 21:00:44;;;;;;;9.05;6.20;;;17.20;99.90;;;;;;20978926;28;20098;-58
2022/07/17 21:10:47;;;;;;;7.40;6.10;;;17.10;99.90;;;;;;20990573;28;20405;-64
2022/07/17 21:20:51;;;;;;;7.57;6.50;;;17.00;99.90;;;;;;20978278;28;20066;-67
2022/07/17 21:30:54;;;;;;;11.93;6.07;;;16.80;99.90;;;;;;21054222;28;20031;-65
2022/07/17 21:40:59;;;;;;;7.32;5.78;;;16.80;99.90;;;;;;20923454;28;20086;-63
2022/07/17 21:51:01;;;;;;;10.63;5.88;;;16.50;99.90;;;;;;20896076;28;20067;-64
2022/07/17 22:01:03;;;;;;;8.43;6.80;;;16.20;99.90;;;;;;20955409;28;20036;-64
2022/07/17 22:11:07;;;;;;;7.80;6.57;;;16.00;99.90;;;;;;20952093;28;20049;-57
2022/07/17 22:21:10;;;;;;;9.68;6.53;;;16.00;99.90;;;;;;20992926;28;20097;-57
2022/07/17 22:31:13;;;;;;;7.50;6.15;;;16.10;99.90;;;;;;20991885;28;20103;-58
2022/07/17 22:41:15;;;;;;;8.05;5.35;;;16.20;99.90;;;;;;20990799;28;20036;-57
2022/07/17 22:51:18;;;;;;;7.25;5.75;;;16.30;99.90;;;;;;20988137;28;20443;-57
2022/07/17 23:01:20;;;;;;;9.57;6.32;;;16.40;99.90;;;;;;20973137;28;20040;-56
2022/07/17 23:11:23;;;;;;;7.13;5.97;;;16.60;99.90;;;;;;20971846;28;20554;-57
2022/07/17 23:21:26;;;;;;;8.73;5.70;;;16.90;99.90;;;;;;20974763;28;20044;-58
2022/07/17 23:31:28;;;;;;;5.85;5.25;;;17.40;99.90;;;;;;21054559;28;20093;-56
2022/07/17 23:41:30;;;;;;;8.13;5.35;;;17.80;99.90;;;;;;21053263;28;20090;-58
2022/07/17 23:51:33;;;;;;;8.07;5.30;;;18.00;99.90;;;;;;21052412;28;20032;-58
